createdAt,value
2019-04-25T00:01:11.570Z,14.40
2019-04-25T00:04:01.897Z,14.50
2019-04-25T00:12:28.138Z,14.20
2019-04-25T00:15:16.385Z,14.20
2019-04-25T00:18:05.038Z,14.20
2019-04-25T00:23:27.460Z,14.00
2019-04-25T00:26:15.493Z,14.00
2019-04-25T00:29:04.082Z,13.90
2019-04-25T00:31:33.011Z,13.80
2019-04-25T00:34:21.848Z,13.80
2019-04-25T00:37:12.270Z,13.80
2019-04-25T00:40:01.494Z,13.70
2019-04-25T00:42:53.424Z,13.60
2019-04-25T00:45:22.335Z,13.50
2019-04-25T00:48:12.242Z,13.50
2019-04-25T00:51:01.915Z,13.40
2019-04-25T00:53:53.681Z,13.40
2019-04-25T00:56:44.514Z,13.30
2019-04-25T00:59:17.926Z,13.20
2019-04-25T01:02:26.367Z,13.20
2019-04-25T01:05:14.686Z,13.10
2019-04-25T01:08:02.990Z,13.10
2019-04-25T01:10:31.926Z,13.00
2019-04-25T01:13:20.069Z,13.00
2019-04-25T01:16:08.532Z,13.00
2019-04-25T01:18:38.310Z,13.00
2019-04-25T01:21:07.526Z,12.90
2019-04-25T01:23:55.795Z,12.80
2019-04-25T01:26:44.058Z,12.70
2019-04-25T01:29:33.465Z,12.60
2019-04-25T01:35:33.398Z,12.40
2019-04-25T01:43:59.859Z,12.10
2019-04-25T01:49:19.090Z,12.00
2019-04-25T01:52:07.605Z,12.00
2019-04-25T01:54:56.246Z,11.90
2019-04-25T02:00:59.352Z,11.80
2019-04-25T02:03:47.675Z,11.80
2019-04-25T02:06:50.725Z,11.80
2019-04-25T02:09:26.071Z,11.90
2019-04-25T02:12:33.668Z,11.80
2019-04-25T02:18:33.568Z,11.80
2019-04-25T02:21:04.379Z,11.80
2019-04-25T02:23:55.164Z,11.80
2019-04-25T02:26:43.798Z,11.70
2019-04-25T02:29:25.191Z,11.70
2019-04-25T02:32:08.928Z,11.60
2019-04-25T02:34:50.070Z,11.50
2019-04-25T02:37:30.601Z,11.40
2019-04-25T02:40:11.203Z,11.40
2019-04-25T02:42:55.645Z,11.30
2019-04-25T02:45:34.717Z,11.30
2019-04-25T02:48:24.159Z,11.20
2019-04-25T02:51:31.655Z,11.20
2019-04-25T02:54:19.907Z,11.10
2019-04-25T02:56:48.870Z,11.10
2019-04-25T02:59:37.375Z,11.10
2019-04-25T03:02:25.665Z,11.10
2019-04-25T03:05:14.350Z,11.00
2019-04-25T03:08:08.014Z,10.90
2019-04-25T03:10:54.331Z,10.90
2019-04-25T03:13:24.899Z,10.80
2019-04-25T03:15:55.721Z,10.80
2019-04-25T03:18:26.523Z,10.80
2019-04-25T03:21:06.214Z,10.70
2019-04-25T03:23:37.864Z,10.70
2019-04-25T03:26:09.058Z,10.60
2019-04-25T03:28:38.412Z,10.60
2019-04-25T03:31:13.897Z,10.40
2019-04-25T03:33:40.435Z,10.50
2019-04-25T03:36:09.787Z,10.50
2019-04-25T03:38:39.008Z,10.40
2019-04-25T03:41:08.683Z,10.40
2019-04-25T03:43:38.057Z,10.30
2019-04-25T03:46:07.145Z,10.30
2019-04-25T03:48:36.976Z,10.20
2019-04-25T03:51:06.786Z,10.20
2019-04-25T03:53:35.844Z,10.20
2019-04-25T03:56:06.039Z,10.20
2019-04-25T03:58:35.429Z,10.10
2019-04-25T04:01:06.964Z,10.10
2019-04-25T04:03:35.526Z,10.10
2019-04-25T04:06:07.299Z,10.10
2019-04-25T04:08:35.774Z,10.00
2019-04-25T04:11:07.057Z,10.10
2019-04-25T04:13:41.331Z,10.00
2019-04-25T04:16:14.116Z,10.00
2019-04-25T04:18:44.376Z,10.00
2019-04-25T04:21:30.990Z,9.90
2019-04-25T04:24:16.196Z,9.90
2019-04-25T04:27:06.716Z,9.90
2019-04-25T04:29:34.997Z,10.00
2019-04-25T04:32:03.918Z,9.90
2019-04-25T04:34:33.727Z,10.00
2019-04-25T04:37:03.718Z,9.90
2019-04-25T04:39:33.864Z,9.90
2019-04-25T04:42:03.849Z,9.90
2019-04-25T04:44:34.363Z,9.90
2019-04-25T04:47:03.972Z,9.90
2019-04-25T04:49:36.612Z,9.90
2019-04-25T04:52:06.520Z,10.00
2019-04-25T04:54:35.684Z,10.00
2019-04-25T04:57:16.664Z,10.10
2019-04-25T04:59:35.385Z,10.10
2019-04-25T05:02:24.422Z,10.20
2019-04-25T05:05:14.445Z,10.20
2019-04-25T05:07:55.444Z,10.30
2019-04-25T05:10:24.670Z,10.40
2019-04-25T05:12:54.035Z,10.50
2019-04-25T05:15:24.841Z,10.60
2019-04-25T05:17:54.395Z,10.70
2019-04-25T05:20:24.181Z,10.80
2019-04-25T05:22:54.912Z,10.80
2019-04-25T05:25:24.930Z,10.90
2019-04-25T05:28:00.785Z,11.00
2019-04-25T05:30:31.613Z,11.10
2019-04-25T05:33:00.908Z,11.20
2019-04-25T05:35:29.893Z,11.40
2019-04-25T05:37:59.244Z,11.50
2019-04-25T05:40:28.401Z,11.60
2019-04-25T05:43:13.389Z,11.70
2019-04-25T05:45:45.975Z,11.70
2019-04-25T05:48:16.021Z,11.90
2019-04-25T05:50:45.895Z,11.90
2019-04-25T05:53:16.154Z,12.00
2019-04-25T05:55:45.463Z,12.00
2019-04-25T05:58:14.780Z,12.10
2019-04-25T06:00:44.080Z,12.10
2019-04-25T06:03:13.687Z,12.20
2019-04-25T06:05:43.442Z,12.20
2019-04-25T06:08:14.151Z,12.30
2019-04-25T06:11:00.637Z,12.40
2019-04-25T06:13:40.266Z,12.50
2019-04-25T06:16:14.722Z,12.60
2019-04-25T06:19:13.289Z,12.70
2019-04-25T06:21:33.595Z,12.70
2019-04-25T06:24:25.964Z,12.80
2019-04-25T06:27:14.209Z,12.90
2019-04-25T06:29:57.355Z,13.00
2019-04-25T06:32:15.506Z,13.20
2019-04-25T06:34:44.521Z,13.30
2019-04-25T06:37:13.902Z,13.50
2019-04-25T06:39:44.238Z,13.50
2019-04-25T06:42:13.888Z,13.60
2019-04-25T06:44:49.775Z,13.70
2019-04-25T06:47:29.926Z,13.90
2019-04-25T06:49:58.881Z,14.00
2019-04-25T06:52:29.991Z,14.10
2019-04-25T06:54:58.496Z,14.30
2019-04-25T06:57:29.020Z,14.40
2019-04-25T06:59:58.194Z,14.50
2019-04-25T07:02:27.383Z,14.70
2019-04-25T07:04:56.813Z,14.90
2019-04-25T07:12:09.728Z,15.00
2019-04-25T07:15:38.670Z,15.30
2019-04-25T07:18:19.126Z,15.70
2019-04-25T07:20:58.566Z,15.90
2019-04-25T07:23:55.616Z,16.00
2019-04-25T07:26:53.813Z,16.10
2019-04-25T07:33:00.145Z,16.40
2019-04-25T07:35:33.812Z,16.60
2019-04-25T07:42:14.276Z,16.90
2019-04-25T07:47:45.620Z,17.40
2019-04-25T07:50:15.597Z,17.60
2019-04-25T07:52:44.987Z,17.80
2019-04-25T07:55:14.243Z,17.90
2019-04-25T07:57:53.243Z,17.90
2019-04-25T08:00:24.602Z,17.80
2019-04-25T08:02:59.403Z,17.90
2019-04-25T08:05:37.833Z,17.90
2019-04-25T08:08:09.545Z,18.00
2019-04-25T08:11:00.611Z,18.20
2019-04-25T08:13:35.114Z,18.30
2019-04-25T08:16:06.306Z,18.40
2019-04-25T08:18:43.350Z,18.40
2019-04-25T08:21:12.759Z,18.40
2019-04-25T08:23:43.388Z,18.30
2019-04-25T08:26:16.338Z,18.50
2019-04-25T08:28:54.989Z,18.50
2019-04-25T08:31:19.656Z,18.40
2019-04-25T08:33:48.872Z,18.10
2019-04-25T08:36:17.902Z,18.00
2019-04-25T08:38:48.378Z,18.00
2019-04-25T08:41:21.473Z,18.00
2019-04-25T08:43:49.767Z,18.10
2019-04-25T08:46:23.518Z,18.30
2019-04-25T08:49:07.515Z,18.40
2019-04-25T08:51:38.664Z,18.50
2019-04-25T08:54:21.359Z,18.60
2019-04-25T08:56:56.908Z,18.70
2019-04-25T09:00:09.955Z,18.90
2019-04-25T09:02:46.718Z,19.00
2019-04-25T09:05:46.246Z,19.00
2019-04-25T09:08:15.939Z,18.90
2019-04-25T09:10:58.283Z,19.00
2019-04-25T09:13:35.399Z,19.00
2019-04-25T09:19:14.220Z,18.80
2019-04-25T09:21:50.988Z,18.90
2019-04-25T09:24:25.333Z,19.20
2019-04-25T09:26:54.873Z,19.30
2019-04-25T09:29:24.049Z,19.40
2019-04-25T09:31:54.950Z,19.30
2019-04-25T09:34:24.190Z,19.50
2019-04-25T09:37:30.130Z,19.40
2019-04-25T09:53:29.649Z,19.90
2019-04-25T09:56:11.367Z,20.00
2019-04-25T10:05:14.123Z,20.20
2019-04-25T10:11:23.739Z,20.50
2019-04-25T10:14:40.893Z,20.70
2019-04-25T10:28:36.109Z,20.50
2019-04-25T10:43:56.655Z,20.70
2019-04-25T10:50:43.891Z,20.80
2019-04-25T10:53:43.801Z,20.80
2019-04-25T10:56:16.735Z,20.90
2019-04-25T10:58:46.748Z,21.10
2019-04-25T11:01:15.778Z,21.20
2019-04-25T11:04:10.012Z,21.40
2019-04-25T11:06:39.525Z,21.50
2019-04-25T11:10:04.053Z,21.60
2019-04-25T11:12:33.770Z,21.70
2019-04-25T11:15:03.981Z,21.70
2019-04-25T11:17:33.869Z,21.50
2019-04-25T11:20:03.665Z,21.40
2019-04-25T11:22:34.399Z,21.70
2019-04-25T11:25:03.720Z,21.80
2019-04-25T11:30:35.321Z,22.10
2019-04-25T11:33:05.285Z,22.10
2019-04-25T11:35:34.457Z,22.20
2019-04-25T11:38:05.933Z,22.00
2019-04-25T11:40:40.549Z,22.10
2019-04-25T11:43:09.995Z,22.00
2019-04-25T11:45:39.478Z,22.20
2019-04-25T11:48:11.379Z,22.30
2019-04-25T11:50:48.165Z,22.10
2019-04-25T11:53:20.189Z,22.20
2019-04-25T11:55:50.220Z,22.20
2019-04-25T11:58:20.394Z,22.40
2019-04-25T12:00:50.942Z,22.50
2019-04-25T12:03:20.685Z,22.70
2019-04-25T12:05:49.955Z,22.80
2019-04-25T12:08:21.945Z,22.70
2019-04-25T12:11:23.504Z,22.70
2019-04-25T12:14:04.209Z,22.80
2019-04-25T12:16:32.953Z,22.90
2019-04-25T12:19:13.896Z,22.90
2019-04-25T12:22:04.072Z,23.00
2019-04-25T12:24:24.819Z,23.20
2019-04-25T12:26:58.148Z,23.10
2019-04-25T12:29:29.368Z,23.20
2019-04-25T12:31:58.650Z,23.20
2019-04-25T12:35:17.686Z,23.10
2019-04-25T13:05:15.293Z,23.90
2019-04-25T13:09:42.647Z,24.20
2019-04-25T13:14:59.626Z,24.10
2019-04-25T13:18:34.710Z,24.20
2019-04-25T13:21:24.065Z,24.30
2019-04-25T13:23:44.346Z,24.50
2019-04-25T13:26:14.063Z,24.20
2019-04-25T13:29:04.078Z,24.30
2019-04-25T13:32:24.707Z,24.30
2019-04-25T13:34:53.900Z,24.50
2019-04-25T13:40:51.767Z,24.50
2019-04-25T13:43:26.708Z,24.60
2019-04-25T13:45:56.069Z,24.80
2019-04-25T13:48:28.084Z,24.90
2019-04-25T13:50:57.377Z,25.00
2019-04-25T13:53:43.443Z,25.00
2019-04-25T13:56:28.701Z,25.10
2019-04-25T13:58:57.956Z,24.90
2019-04-25T14:01:27.690Z,24.80
2019-04-25T14:03:57.278Z,24.70
2019-04-25T14:07:01.394Z,24.80
2019-04-25T14:09:36.641Z,25.00
2019-04-25T14:12:06.611Z,25.10
2019-04-25T14:14:47.623Z,25.10
2019-04-25T14:17:53.791Z,25.10
2019-04-25T14:20:30.054Z,25.30
2019-04-25T14:22:59.356Z,24.90
2019-04-25T14:25:28.636Z,25.10
2019-04-25T14:27:57.821Z,25.10
2019-04-25T14:30:29.791Z,25.10
2019-04-25T14:32:58.742Z,25.00
2019-04-25T14:35:29.346Z,25.00
2019-04-25T14:38:01.671Z,25.10
2019-04-25T14:40:34.227Z,25.10
2019-04-25T14:43:05.524Z,25.00
2019-04-25T14:45:44.394Z,25.00
2019-04-25T14:48:10.205Z,25.00
2019-04-25T14:50:44.744Z,24.80
2019-04-25T14:53:16.959Z,24.90
2019-04-25T14:56:15.323Z,24.90
2019-04-25T14:58:50.469Z,24.80
2019-04-25T15:01:22.695Z,24.90
2019-04-25T15:03:52.782Z,25.00
2019-04-25T15:06:24.464Z,24.90
2019-04-25T15:08:54.166Z,25.10
2019-04-25T15:11:27.005Z,25.20
2019-04-25T15:13:56.281Z,25.20
2019-04-25T15:16:25.507Z,25.00
2019-04-25T15:18:56.928Z,25.00
2019-04-25T15:21:26.716Z,25.10
2019-04-25T15:24:00.390Z,25.00
2019-04-25T15:26:27.446Z,24.90
2019-04-25T15:28:59.278Z,25.00
2019-04-25T15:31:32.075Z,24.90
2019-04-25T15:34:16.003Z,25.00
2019-04-25T15:37:02.407Z,25.10
2019-04-25T15:39:43.661Z,25.00
2019-04-25T15:42:42.529Z,25.10
2019-04-25T15:45:34.310Z,25.10
2019-04-25T15:48:15.355Z,25.20
2019-04-25T15:50:47.552Z,25.20
2019-04-25T15:56:14.763Z,25.90
2019-04-25T15:58:44.010Z,26.40
2019-04-25T16:01:16.030Z,27.40
2019-04-25T16:03:46.466Z,27.50
2019-04-25T16:06:15.475Z,28.20
2019-04-25T16:08:44.340Z,27.60
2019-04-25T16:11:33.012Z,28.20
2019-04-25T16:14:05.440Z,28.70
2019-04-25T16:16:35.914Z,28.60
2019-04-25T16:19:05.538Z,28.50
2019-04-25T16:21:35.489Z,28.60
2019-04-25T16:24:05.191Z,27.60
2019-04-25T16:26:34.461Z,27.10
2019-04-25T16:29:08.057Z,26.70
2019-04-25T16:31:39.415Z,26.20
2019-04-25T16:34:11.055Z,25.80
2019-04-25T16:36:40.515Z,25.20
2019-04-25T16:39:12.596Z,25.20
2019-04-25T16:41:48.281Z,25.00
2019-04-25T16:44:19.838Z,24.90
2019-04-25T16:46:49.195Z,24.60
2019-04-25T16:49:21.733Z,24.50
2019-04-25T16:51:54.097Z,24.40
2019-04-25T16:54:26.173Z,23.90
2019-04-25T16:56:55.274Z,23.90
2019-04-25T16:59:27.422Z,23.80
2019-04-25T17:01:56.735Z,23.80
2019-04-25T17:04:26.192Z,23.70
2019-04-25T17:06:55.472Z,23.50
2019-04-25T17:09:27.678Z,23.40
2019-04-25T17:11:57.300Z,23.30
2019-04-25T17:14:51.558Z,23.30
2019-04-25T17:17:38.919Z,23.10
2019-04-25T17:20:36.894Z,22.90
2019-04-25T17:23:16.236Z,22.80
2019-04-25T17:26:04.580Z,22.60
2019-04-25T17:28:46.916Z,22.50
2019-04-25T17:31:29.471Z,22.40
2019-04-25T17:34:08.944Z,22.30
2019-04-25T17:36:45.358Z,22.30
2019-04-25T17:39:33.423Z,22.10
2019-04-25T17:42:09.179Z,22.00
2019-04-25T17:44:44.555Z,21.90
2019-04-25T17:47:13.516Z,21.80
2019-04-25T17:52:20.062Z,21.60
2019-04-25T17:54:49.357Z,21.50
2019-04-25T17:57:18.496Z,21.50
2019-04-25T17:59:47.508Z,21.40
2019-04-25T18:02:16.645Z,21.40
2019-04-25T18:04:45.779Z,21.30
2019-04-25T18:07:15.141Z,21.20
2019-04-25T18:09:49.662Z,21.20
2019-04-25T18:12:24.380Z,21.10
2019-04-25T18:15:18.769Z,21.00
2019-04-25T18:18:35.363Z,20.90
2019-04-25T18:21:09.609Z,20.80
2019-04-25T18:24:00.034Z,20.60
2019-04-25T18:26:48.113Z,20.50
2019-04-25T18:29:20.482Z,20.30
2019-04-25T18:31:49.755Z,20.20
2019-04-25T18:34:33.277Z,20.20
2019-04-25T18:37:14.317Z,20.10
2019-04-25T18:39:59.305Z,20.00
2019-04-25T18:42:46.119Z,19.80
2019-04-25T18:45:19.279Z,19.80
2019-04-25T18:47:48.259Z,19.80
2019-04-25T18:50:19.363Z,19.80
2019-04-25T18:52:57.832Z,19.70
2019-04-25T18:55:33.068Z,19.60
2019-04-25T18:58:39.870Z,19.50
2019-04-25T19:01:19.811Z,19.50
2019-04-25T19:04:04.704Z,19.30
2019-04-25T19:06:35.855Z,19.40
2019-04-25T19:09:07.806Z,19.30
2019-04-25T19:11:37.005Z,19.20
2019-04-25T19:14:07.958Z,19.10
2019-04-25T19:16:41.118Z,19.00
2019-04-25T19:19:20.011Z,18.90
2019-04-25T19:48:10.388Z,18.70
2019-04-25T19:51:03.163Z,18.80
2019-04-25T19:53:41.726Z,18.80
2019-04-25T19:56:18.200Z,18.80
2019-04-25T19:58:48.569Z,18.80
2019-04-25T20:01:18.191Z,18.80
2019-04-25T20:04:04.902Z,18.80
2019-04-25T20:06:53.679Z,18.80
2019-04-25T20:09:40.485Z,18.70
2019-04-25T20:12:10.078Z,18.70
2019-04-25T20:19:44.876Z,18.70
2019-04-25T20:22:14.627Z,18.50
2019-04-25T20:24:46.380Z,18.40
2019-04-25T20:27:15.678Z,18.40
2019-04-25T20:29:45.312Z,18.40
2019-04-25T20:32:18.235Z,18.30
2019-04-25T20:34:47.322Z,18.30
2019-04-25T20:37:16.478Z,18.20
2019-04-25T20:39:47.268Z,18.20
2019-04-25T20:42:16.533Z,18.20
2019-04-25T20:44:46.755Z,18.20
2019-04-25T20:47:16.767Z,18.20
2019-04-25T20:49:46.733Z,18.20
2019-04-25T20:52:16.057Z,18.10
2019-04-25T20:54:45.243Z,18.10
2019-04-25T20:57:15.163Z,18.10
2019-04-25T20:59:58.055Z,18.00
2019-04-25T21:02:33.503Z,18.10
2019-04-25T21:05:11.652Z,18.00
2019-04-25T21:07:41.221Z,18.10
2019-04-25T21:10:13.255Z,18.00
2019-04-25T21:12:44.211Z,18.00
2019-04-25T21:19:18.080Z,17.90
2019-04-25T21:21:54.297Z,17.80
2019-04-25T21:24:26.510Z,17.70
2019-04-25T21:27:00.998Z,17.70
2019-04-25T21:30:07.284Z,17.70
2019-04-25T21:32:53.380Z,17.60
2019-04-25T21:35:45.385Z,17.50
2019-04-25T21:38:24.559Z,17.50
2019-04-25T21:41:17.546Z,17.50
2019-04-25T21:43:51.678Z,17.40
2019-04-25T21:46:29.187Z,17.40
2019-04-25T21:49:11.490Z,17.30
2019-04-25T21:51:49.117Z,17.20
2019-04-25T21:54:16.916Z,17.10
2019-04-25T21:57:08.550Z,16.90
2019-04-25T21:59:35.258Z,16.90
2019-04-25T22:02:16.422Z,16.80
2019-04-25T22:04:45.748Z,16.80
2019-04-25T22:07:15.184Z,16.90
2019-04-25T22:09:44.606Z,16.90
2019-04-25T22:12:14.550Z,17.00
2019-04-25T22:14:43.634Z,17.10
2019-04-25T22:17:12.677Z,17.10
2019-04-25T22:19:42.077Z,17.10
2019-04-25T22:22:11.458Z,17.10
2019-04-25T22:24:40.727Z,17.00
2019-04-25T22:27:14.936Z,16.90
2019-04-25T22:29:47.079Z,16.80
2019-04-25T22:32:33.482Z,16.80
2019-04-25T22:35:11.359Z,16.80
2019-04-25T22:37:40.500Z,16.80
2019-04-25T22:40:10.293Z,16.70
2019-04-25T22:42:39.638Z,16.70
2019-04-25T22:45:09.044Z,16.70
2019-04-25T22:47:38.291Z,16.70
2019-04-25T22:50:07.577Z,16.60
2019-04-25T22:52:37.867Z,16.60
2019-04-25T22:55:08.775Z,16.60
2019-04-25T22:57:38.443Z,16.60
2019-04-25T23:00:11.146Z,16.50
2019-04-25T23:02:46.629Z,16.40
2019-04-25T23:05:38.751Z,16.30
2019-04-25T23:08:08.204Z,16.30
2019-04-25T23:10:37.583Z,16.30
2019-04-25T23:13:06.833Z,16.30
2019-04-25T23:15:36.031Z,16.30
2019-04-25T23:18:05.618Z,16.20
2019-04-25T23:20:37.734Z,16.30
2019-04-25T23:23:07.655Z,16.30
2019-04-25T23:25:55.727Z,16.20
2019-04-25T23:28:27.856Z,16.20
2019-04-25T23:31:16.037Z,16.20
2019-04-25T23:33:45.237Z,16.10
2019-04-25T23:36:15.378Z,16.20
2019-04-25T23:38:44.502Z,16.20
2019-04-25T23:41:13.908Z,16.10
2019-04-25T23:43:44.917Z,16.10
2019-04-25T23:46:14.207Z,16.10
2019-04-25T23:48:45.465Z,16.10
2019-04-25T23:51:22.064Z,16.00
2019-04-25T23:53:47.385Z,16.00
2019-04-25T23:56:17.329Z,16.00
2019-04-25T23:58:48.171Z,15.90
